Airfield :







YOU CAN JOIN US ON...

 
LOGIN :

Register | Disclaimer

   EN    FR    IT 

 









Legend :    VFR   Marginal VFR   IFR   Intensive IFR   Very Intensive IFR
Visi :
Ceiling :
>= 8 km
>= 3000ft
5 to 8 km
1000 to 3000 ft
1500m to 5 km
500 to 1000 ft
800 to 1500m
200 to 500 ft
< 800m
< 200 ft
Symbols :   Thunderstorms  Fog  Heavy snow  Heavy precipitations  Wind > 20 kt







- Airport Elevation : 215 ft
- IATA code : MSS


KMSS - Massena International Richards Field

CURRENT METAR :
  • 220453Z AUTO 18003KT 10SM SCT035 BKN042 OVC049 04/04 A2974 RMK AO2 RAE45 SLP073 P0000 T00390039 400831028

EXPIRED METARs :
  • 220353Z AUTO 15004KT 8SM -RA BKN039 OVC070 04/04 A2976 RMK AO2 SLP082 P0005 T00390039
  • 220253Z AUTO 16005KT 8SM -RA OVC039 04/04 A2979 RMK AO2 SLP091 P0002 60004 T00440039 58015

TAF KMSS
Valid from the 22 at 06:00 until the 23 at 06:00 UTC


220520Z 2206/2306 00000KT P6SM VCSH OVC035
FM221000 VRB03KT 1 1/2SM -RA BR OVC007
FM221300 06005KT 1 1/2SM -SNRA BR OVC004
FM222300 32015G28KT 1 1/2SM -SNRA BR OVC005
KZBW FIR / North America



MET'MAP, your aeronautical weather chart ! - Copyright ORBIFLY December 2007 - Disclaimer

ORBIFLY MET'MAP TEAM :

Programming & Development : Alexandra Zaïnal
Concept & Development : Baudouin d'Aumeries
Co-Development & Prog : Marc-Olivier Méhu
Technical & hardware support : Manuel Goepfert

Contact : metmap@orbifly.com




SOURCES & CREDITS :

   NOAA